Pagrindinis puslapis
METAR-TAF:

METAR-TAF

Oro uostai :

Tirupati, Indija

platuma: 13-38-16N, ilguma: 79-32-50E, Aukštis: 107 m

Dabartinis oras

Ataskaita buvo paskelbta 12 minutes, ne 05:00 UTC
Vėjas 2 kt nuo kintamojo kryptimis
Temperatūra 30°C
Drėgmė 66%
Slėgis 1006 hPa
Matomumas: 6000 m
Mažai debesys ne aukštis 2000 ft
Su prošvaistėmis ne aukštis 10000 ft

METAR: VOTP 140500Z VRB02KT 6000 FEW020 BKN100 30/23 Q1006 NOSIG

Laikas: 10:42 (05:12 UTC)

Prognozė

Ataskaita buvo paskelbta 21 valandos ir 12 minutes, ne 08:00 UTC
Prognozė galioja nuo 13 metu 09 UTC su 13 metu 18 UTC
Vėjas 10 kt iš Vakarų
Matomumas: 6000 m
Išsisklaidę debesys ne aukštis 2000 ft
Su prošvaistėmis ne aukštis 10000 ft
Laikinai
nuo 13 metu 12 UTC su 13 metu 16 UTC
Matomumas: 5000 m
Mažai debesys ne aukštis 3000 ft, Liūtiniai kamuoliniai debesys.
lietus, dulksna

TAF: VOTP 130800Z 1309/1318 27010KT 6000 SCT020 BKN100 TEMPO 1312/1316 5000 RA DZ FEW030CB

Orai ataskaitas ir orų prognozės (METAR, TAF).

turimą stotys yra geltonos ir raudonos taškus žemėlapyje.

Perkelti pele per norėdami pamatyti stoties vardą.

Tada spustelėkite, norėdami matyti oro stebėjimo ir prognozės.

Norėdami pakeisti žemėlapį: spustelėkite ant žalios mygtukų su juodo kryžiaus žemyn,; žalią mygtuką su brūkšneliu, jei norite nutolinti; arba žalių rodyklių gretimoms žemėlapius.


METAR-TAF: